Time;durP1;ratioP1;P1;durP2;ratioP2;P2;SDS_P1;SDS_P2;PMS_P1;PMS_P2;Temp;Humidity;BMP_temperature;BMP_pressure;BME280_temperature;BME280_humidity;BME280_pressure;Samples;Min_cycle;Max_cycle;Signal;HPM_P1;HPM_P2
2022/08/01 00:00:41;;;;;;;;;1.00;1.00;;;;;26.43;47.92;101268.63;2096646;28;47575;-57
2022/08/01 00:01:41;;;;;;;;;2.00;2.00;;;;;26.44;48.12;101266.78;2100268;28;47003;-56
2022/08/01 00:02:41;;;;;;;;;1.50;1.50;;;;;26.45;48.07;101269.38;2104096;28;47671;-56
2022/08/01 00:03:42;;;;;;;;;3.00;3.00;;;;;26.46;47.63;101267.53;2101244;27;47270;-58
2022/08/01 00:04:42;;;;;;;;;2.00;2.00;;;;;26.43;47.78;101267.78;2105172;28;47082;-59
2022/08/01 00:05:44;;;;;;;;;1.50;1.00;;;;;26.42;48.25;101275.03;2102203;28;47290;-58
2022/08/01 00:06:44;;;;;;;;;0.20;0.20;;;;;26.39;47.52;101268.00;2102380;28;47521;-57
2022/08/01 00:07:45;;;;;;;;;1.50;1.50;;;;;26.39;47.67;101264.41;2104164;28;47197;-57
2022/08/01 00:08:45;;;;;;;;;1.00;1.00;;;;;26.37;47.70;101266.38;2104733;28;47548;-57
2022/08/01 00:09:45;;;;;;;;;2.00;2.00;;;;;26.35;47.75;101265.63;2100070;28;47462;-57
2022/08/01 00:10:46;;;;;;;;;2.00;2.00;;;;;26.33;48.58;101262.16;2105098;28;47357;-58
2022/08/01 00:11:46;;;;;;;;;1.00;1.00;;;;;26.35;47.80;101271.06;2101935;28;47585;-59
2022/08/01 00:12:47;;;;;;;;;1.50;1.50;;;;;26.37;48.21;101271.81;2099037;28;47607;-57
2022/08/01 00:13:47;;;;;;;;;2.00;2.00;;;;;26.38;47.67;101279.88;2103808;27;47284;-57
2022/08/01 00:14:48;;;;;;;;;2.00;1.00;;;;;26.37;47.93;101264.53;2100019;28;47666;-58
2022/08/01 00:15:48;;;;;;;;;3.50;2.00;;;;;26.39;48.34;101267.13;2096590;28;47130;-56
2022/08/01 00:16:48;;;;;;;;;1.00;1.00;;;;;26.42;48.22;101271.44;2105109;27;47424;-56
2022/08/01 00:17:49;;;;;;;;;2.25;2.00;;;;;26.43;47.81;101271.34;2104139;28;47541;-58
2022/08/01 00:18:50;;;;;;;;;1.25;1.25;;;;;26.43;48.49;101271.34;2098016;28;48390;-56
2022/08/01 00:19:51;;;;;;;;;2.00;2.00;;;;;26.45;48.15;101268.50;2102790;28;48047;-58
2022/08/01 00:20:52;;;;;;;;;3.00;1.50;;;;;26.45;47.74;101263.94;2105096;27;47050;-57
2022/08/01 00:21:52;;;;;;;;;1.25;1.25;;;;;26.47;47.95;101272.84;2103637;28;47101;-57
2022/08/01 00:22:52;;;;;;;;;1.00;1.00;;;;;26.48;48.38;101271.84;2102328;28;47650;-56
2022/08/01 00:23:53;;;;;;;;;4.00;3.00;;;;;26.47;48.13;101270.13;2105408;28;47655;-57
2022/08/01 00:24:53;;;;;;;;;2.00;2.00;;;;;26.46;47.47;101268.38;2104671;28;47011;-58
2022/08/01 00:25:54;;;;;;;;;2.25;2.25;;;;;26.45;48.25;101261.22;2102237;28;47747;-58
2022/08/01 00:26:54;;;;;;;;;1.50;1.50;;;;;26.45;48.14;101263.06;2096597;28;47289;-56
2022/08/01 00:27:55;;;;;;;;;1.00;1.00;;;;;26.44;48.05;101266.78;2102893;28;47357;-58
2022/08/01 00:28:55;;;;;;;;;3.50;2.50;;;;;26.40;48.10;101258.84;2102335;28;48038;-57
2022/08/01 00:29:55;;;;;;;;;2.00;2.00;;;;;26.39;47.59;101258.97;2104028;28;47933;-59
2022/08/01 00:30:56;;;;;;;;;2.25;2.25;;;;;26.37;48.15;101255.50;2101068;28;47794;-58
2022/08/01 00:31:56;;;;;;;;;2.00;0.50;;;;;26.36;48.07;101259.22;2104544;28;47447;-57
2022/08/01 00:32:57;;;;;;;;;2.00;2.00;;;;;26.36;47.71;101253.78;2101635;28;47454;-57
2022/08/01 00:33:57;;;;;;;;;3.00;3.00;;;;;26.36;47.96;101259.22;2104702;28;47316;-56
2022/08/01 00:34:57;;;;;;;;;2.00;2.00;;;;;26.33;48.21;101254.84;2100679;28;46264;-58
2022/08/01 00:35:58;;;;;;;;;1.00;1.00;;;;;26.33;47.84;101249.41;2102787;28;47922;-58
2022/08/01 00:36:58;;;;;;;;;2.50;2.50;;;;;26.33;47.68;101251.25;2104493;28;47502;-59
2022/08/01 00:37:59;;;;;;;;;1.50;1.50;;;;;26.33;47.86;101254.84;2103622;28;47843;-56
2022/08/01 00:38:59;;;;;;;;;1.25;1.25;;;;;26.34;48.24;101242.13;2101694;28;47538;-57
2022/08/01 00:39:59;;;;;;;;;2.00;2.00;;;;;26.35;48.16;101252.00;2103561;27;47146;-57
2022/08/01 00:41:00;;;;;;;;;2.00;2.00;;;;;26.36;48.07;101251.91;2103363;28;47662;-57
2022/08/01 00:42:07;;;;;;;;;0.75;0.75;;;;;26.37;48.26;101247.34;2104092;27;47216;-58
2022/08/01 00:43:07;;;;;;;;;2.00;2.00;;;;;26.37;47.91;101250.91;2104616;28;47234;-58
2022/08/01 00:44:08;;;;;;;;;2.00;2.00;;;;;26.38;48.18;101244.50;2103243;28;48091;-57
2022/08/01 00:45:09;;;;;;;;;2.00;2.00;;;;;26.40;48.21;101250.66;2104499;28;48092;-56
2022/08/01 00:46:10;;;;;;;;;1.00;1.00;;;;;26.42;48.18;101244.22;2102306;27;47619;-56
2022/08/01 00:47:10;;;;;;;;;1.75;1.75;;;;;26.43;48.29;101249.59;2102932;28;46200;-58
2022/08/01 00:48:11;;;;;;;;;1.50;1.00;;;;;26.40;47.85;101245.22;2102453;27;47285;-57
2022/08/01 00:49:11;;;;;;;;;1.25;1.25;;;;;26.43;48.12;101237.84;2112760;27;47383;-57
2022/08/01 00:50:12;;;;;;;;;2.00;2.00;;;;;26.40;47.64;101244.38;2110727;27;48125;-57
2022/08/01 00:51:13;;;;;;;;;2.00;2.00;;;;;26.40;48.25;101244.38;2103095;28;47564;-57
2022/08/01 00:52:13;;;;;;;;;1.20;1.20;;;;;26.39;47.48;101243.50;2102901;27;47551;-59
2022/08/01 00:53:14;;;;;;;;;2.00;2.00;;;;;26.39;47.44;101235.34;2105190;28;47374;-58
2022/08/01 00:54:15;;;;;;;;;2.75;1.00;;;;;26.38;47.74;101238.19;2104823;27;47523;-58
2022/08/01 00:55:18;;;;;;;;;1.40;1.40;;;;;26.37;47.74;101241.91;2105549;27;45563;-58
2022/08/01 00:56:20;;;;;;;;;1.20;1.20;;;;;26.34;47.92;101242.97;2096508;28;47948;-57
2022/08/01 00:57:20;;;;;;;;;1.00;1.00;;;;;26.34;47.75;101236.66;2104743;28;47306;-57
2022/08/01 00:58:22;;;;;;;;;0.00;0.00;;;;;26.33;47.46;101238.53;2099353;28;47885;-57
2022/08/01 00:59:23;;;;;;;;;0.00;0.00;;;;;26.32;48.10;101236.78;2097748;27;47226;-55
2022/08/01 01:00:23;;;;;;;;;1.00;1.00;;;;;26.31;47.69;101237.78;2097727;28;47188;-54
2022/08/01 01:01:25;;;;;;;;;0.00;0.00;;;;;26.31;47.50;101242.38;2105079;28;47524;-57
2022/08/01 01:02:25;;;;;;;;;1.00;1.00;;;;;26.29;48.06;101244.31;2104712;27;47843;-58
2022/08/01 01:03:26;;;;;;;;;1.00;1.00;;;;;26.27;47.74;101244.44;2104996;27;47548;-56
2022/08/01 01:04:27;;;;;;;;;1.00;1.00;;;;;26.28;47.78;101234.41;2104631;27;47413;-58
2022/08/01 01:05:28;;;;;;;;;2.75;1.00;;;;;26.28;47.58;101234.41;2100834;27;47893;-56
2022/08/01 01:06:57;;;;;;;;;1.00;1.00;;;;;26.30;47.51;101237.91;2099684;28;47708;-56
2022/08/01 01:08:07;;;;;;;;;0.00;0.00;;;;;26.31;47.56;101239.66;2104810;28;47577;-57
2022/08/01 01:09:27;;;;;;;;;0.00;0.00;;;;;26.32;48.02;101238.66;2099669;27;47193;-59
2022/08/01 01:10:47;;;;;;;;;0.00;0.00;;;;;26.32;47.56;101238.66;2101912;28;47557;-57
2022/08/01 01:12:16;;;;;;;;;0.00;0.00;;;;;26.32;47.64;101236.78;2098759;28;48007;-57
2022/08/01 01:13:35;;;;;;;;;0.40;0.40;;;;;26.31;47.72;101240.50;2098569;28;47230;-57
2022/08/01 01:14:50;;;;;;;;;0.00;0.00;;;;;26.30;47.30;101232.47;2104738;27;47610;-56
2022/08/01 01:15:57;;;;;;;;;0.50;0.00;;;;;26.28;47.99;101235.28;2098058;28;47361;-58
2022/08/01 01:17:01;;;;;;;;;3.00;1.00;;;;;26.28;47.81;101240.72;2103504;27;47943;-56
2022/08/01 01:18:07;;;;;;;;;0.00;0.00;;;;;26.27;47.75;101238.13;2102375;27;48268;-57
2022/08/01 01:19:13;;;;;;;;;0.00;0.00;;;;;26.27;47.72;101243.56;2097839;28;47387;-55
2022/08/01 01:20:16;;;;;;;;;1.60;1.60;;;;;26.26;48.51;101239.13;2105051;27;47583;-59
2022/08/01 01:21:16;;;;;;;;;0.00;0.00;;;;;26.25;47.75;101237.38;2104716;27;46434;-58
2022/08/01 01:22:44;;;;;;;;;2.00;0.00;;;;;26.25;48.10;101235.53;2101845;28;47665;-58
2022/08/01 01:24:12;;;;;;;;;0.00;0.00;;;;;26.25;48.23;101238.25;2096421;28;47782;-58
2022/08/01 01:25:39;;;;;;;;;0.00;0.00;;;;;26.25;47.72;101240.97;2103906;28;47371;-57
2022/08/01 01:26:49;;;;;;;;;1.00;0.00;;;;;26.26;48.13;101233.69;2104777;27;47290;-58
2022/08/01 01:28:06;;;;;;;;;0.75;0.75;;;;;26.27;48.06;101235.41;2099664;28;47784;-56
2022/08/01 01:29:17;;;;;;;;;0.80;0.80;;;;;26.27;47.42;101232.69;2104708;27;47902;-59
2022/08/01 01:30:18;;;;;;;;;0.25;0.25;;;;;26.26;48.12;101242.72;2096985;28;47537;-58
2022/08/01 01:31:21;;;;;;;;;0.00;0.00;;;;;26.26;48.37;101233.69;2104634;27;47569;-57
2022/08/01 01:32:33;;;;;;;;;0.25;0.00;;;;;26.26;48.26;101233.69;2103679;27;47374;-56
2022/08/01 01:33:35;;;;;;;;;0.75;0.75;;;;;26.25;48.49;101238.25;2097248;28;47918;-56
2022/08/01 01:34:39;;;;;;;;;1.50;1.50;;;;;26.24;47.75;101231.09;2101163;27;46204;-58
2022/08/01 01:35:47;;;;;;;;;0.00;0.00;;;;;26.24;47.82;101238.38;2102551;28;47379;-57
2022/08/01 01:36:49;;;;;;;;;0.00;0.00;;;;;26.22;48.28;101234.91;2104117;27;47801;-58
2022/08/01 01:37:55;;;;;;;;;0.00;0.00;;;;;26.20;47.74;101236.91;2097717;28;47875;-56
2022/08/01 01:38:56;;;;;;;;;0.00;0.00;;;;;26.18;48.19;101237.03;2101864;28;47276;-58
2022/08/01 01:39:59;;;;;;;;;0.00;0.00;;;;;26.18;48.34;101236.16;2103824;27;47655;-59
2022/08/01 01:41:01;;;;;;;;;0.60;0.00;;;;;26.16;48.11;101235.38;2098751;28;47855;-60
2022/08/01 01:42:04;;;;;;;;;1.60;1.00;;;;;26.15;48.08;101236.38;2100869;28;47266;-58
2022/08/01 01:43:10;;;;;;;;;0.00;0.00;;;;;26.17;48.43;101238.03;2101802;28;46602;-58
2022/08/01 01:44:11;;;;;;;;;0.00;0.00;;;;;26.16;47.97;101233.53;2104689;27;47480;-56
2022/08/01 01:45:13;;;;;;;;;1.00;1.00;;;;;26.16;48.43;101238.97;2104374;28;48057;-59
2022/08/01 01:46:18;;;;;;;;;0.40;0.40;;;;;26.17;48.53;101228.97;2104169;28;48167;-58
2022/08/01 01:47:21;;;;;;;;;0.00;0.00;;;;;26.17;48.60;101235.28;2104847;27;47579;-57
2022/08/01 01:48:24;;;;;;;;;0.00;0.00;;;;;26.19;48.31;101229.72;2104345;28;47438;-58
2022/08/01 01:49:27;;;;;;;;;0.25;0.25;;;;;26.19;48.21;101232.44;2104621;27;47403;-58
2022/08/01 01:50:28;;;;;;;;;0.20;0.20;;;;;26.19;47.92;101236.03;2103815;27;48158;-57
2022/08/01 01:51:30;;;;;;;;;1.00;1.00;;;;;26.19;48.16;101229.72;2104460;27;47609;-57
2022/08/01 01:52:32;;;;;;;;;0.75;0.75;;;;;26.19;48.41;101232.44;2102725;28;47670;-58
2022/08/01 01:53:34;;;;;;;;;0.00;0.00;;;;;26.18;47.98;101231.59;2103017;28;48188;-58
2022/08/01 01:54:40;;;;;;;;;0.00;0.00;;;;;26.17;48.61;101227.13;2097987;27;47276;-57
2022/08/01 01:55:43;;;;;;;;;0.00;0.00;;;;;26.18;47.93;101233.44;2102961;28;47278;-57
2022/08/01 01:56:50;;;;;;;;;0.00;0.00;;;;;26.18;48.68;101228.88;2101060;27;47431;-57
2022/08/01 01:57:52;;;;;;;;;1.00;1.00;;;;;26.18;48.60;101228.00;2109993;27;47939;-57
2022/08/01 01:58:57;;;;;;;;;0.00;0.00;;;;;26.15;47.79;101220.91;2106749;27;48218;-58
2022/08/01 02:00:00;;;;;;;;;0.00;0.00;;;;;26.15;48.49;101228.22;2106524;27;47613;-58
2022/08/01 02:01:02;;;;;;;;;0.00;0.00;;;;;26.14;48.84;101227.34;2103167;28;47918;-57
2022/08/01 02:02:05;;;;;;;;;0.25;0.25;;;;;26.14;48.67;101221.03;2100300;27;47564;-57
2022/08/01 02:03:08;;;;;;;;;0.00;0.00;;;;;26.14;48.69;101224.63;2104652;27;47172;-57
2022/08/01 02:04:09;;;;;;;;;0.00;0.00;;;;;26.13;48.23;101222.03;2104645;27;47263;-57
2022/08/01 02:05:11;;;;;;;;;0.00;0.00;;;;;26.14;48.30;101223.75;2104539;27;47500;-54
2022/08/01 02:06:14;;;;;;;;;0.00;0.00;;;;;26.13;48.69;101222.03;2103091;27;47267;-58
2022/08/01 02:07:18;;;;;;;;;0.75;0.75;;;;;26.10;48.42;101224.00;2104625;27;47744;-58
2022/08/01 02:08:21;;;;;;;;;0.00;0.00;;;;;26.09;48.26;101225.00;2103511;27;47247;-56
2022/08/01 02:09:24;;;;;;;;;0.00;0.00;;;;;26.10;48.25;101225.88;2104558;27;47801;-58
2022/08/01 02:10:25;;;;;;;;;0.00;0.00;;;;;26.08;48.74;101223.28;2104627;27;47275;-58
2022/08/01 02:11:26;;;;;;;;;2.25;0.75;;;;;26.06;48.86;101219.81;2102745;27;47744;-57
2022/08/01 02:12:29;;;;;;;;;0.33;0.33;;;;;26.05;48.11;101218.09;2105170;28;47354;-56
2022/08/01 02:13:32;;;;;;;;;0.00;0.00;;;;;26.04;48.63;101224.50;2104572;27;47881;-58
2022/08/01 02:14:37;;;;;;;;;0.00;0.00;;;;;26.06;48.79;101222.53;2104673;27;47414;-56
2022/08/01 02:15:38;;;;;;;;;1.00;1.00;;;;;26.06;48.96;101222.53;2104559;27;47710;-56
2022/08/01 02:16:42;;;;;;;;;2.00;0.25;;;;;26.06;48.73;101221.66;2100204;27;47905;-55
2022/08/01 02:17:47;;;;;;;;;1.00;1.00;;;;;26.06;48.95;101219.81;2104566;27;47275;-56
2022/08/01 02:18:47;;;;;;;;;1.75;0.25;;;;;26.06;48.75;101221.66;2100518;27;47818;-57
2022/08/01 02:19:48;;;;;;;;;0.00;0.00;;;;;26.06;48.29;101221.66;2102669;28;47300;-57
2022/08/01 02:20:52;;;;;;;;;0.00;0.00;;;;;26.06;48.68;101227.13;2103839;28;47326;-58
2022/08/01 02:21:57;;;;;;;;;0.25;0.25;;;;;26.05;49.37;101219.94;2102246;28;48090;-56
2022/08/01 02:23:11;;;;;;;;;0.00;0.00;;;;;26.04;49.12;101221.78;2104431;27;47682;-58
2022/08/01 02:24:23;;;;;;;;;1.00;1.00;;;;;26.03;49.17;101216.44;2094737;28;46716;-57
2022/08/01 02:25:33;;;;;;;;;0.00;0.00;;;;;26.02;48.69;101220.16;2095299;28;48287;-57
2022/08/01 02:26:41;;;;;;;;;1.00;1.00;;;;;26.03;49.21;101224.59;2098289;27;47785;-56
2022/08/01 02:27:55;;;;;;;;;0.00;0.00;;;;;26.03;48.77;101219.16;2102248;28;47421;-56
2022/08/01 02:29:01;;;;;;;;;0.00;0.00;;;;;26.02;48.89;101220.16;2104492;27;47537;-57
2022/08/01 02:30:05;;;;;;;;;0.00;0.00;;;;;26.02;48.87;101222.88;2105242;27;47293;-57
2022/08/01 02:31:10;;;;;;;;;0.50;0.00;;;;;26.03;48.95;101227.31;2107921;27;47060;-57
2022/08/01 02:32:25;;;;;;;;;0.50;0.50;;;;;26.03;49.20;101225.47;2097965;28;47399;-58
2022/08/01 02:33:38;;;;;;;;;0.75;0.00;;;;;26.04;48.95;101221.78;2099005;28;47737;-59
2022/08/01 02:34:40;;;;;;;;;0.00;0.00;;;;;26.04;48.94;101227.22;2099949;27;47932;-57
2022/08/01 02:35:43;;;;;;;;;0.00;0.00;;;;;26.04;49.18;101223.63;2096263;28;47937;-58
2022/08/01 02:36:45;;;;;;;;;1.00;1.00;;;;;26.06;49.43;101229.84;2100406;28;47810;-58
2022/08/01 02:37:48;;;;;;;;;1.00;1.00;;;;;26.07;49.06;101226.13;2103460;27;47791;-57
2022/08/01 02:38:50;;;;;;;;;1.75;0.00;;;;;26.07;49.27;101224.25;2097276;28;47815;-56
2022/08/01 02:39:53;;;;;;;;;0.00;0.00;;;;;26.08;49.44;101225.13;2097161;28;47479;-58
2022/08/01 02:40:58;;;;;;;;;1.75;0.00;;;;;26.08;49.19;101228.72;2097895;27;47878;-55
2022/08/01 02:42:03;;;;;;;;;0.00;0.00;;;;;26.08;49.23;101227.84;2097535;28;47794;-58
2022/08/01 02:43:06;;;;;;;;;0.00;0.00;;;;;26.08;49.01;101225.13;2102591;28;47670;-56
2022/08/01 02:44:08;;;;;;;;;0.00;0.00;;;;;26.08;49.19;101222.41;2104851;27;48039;-58
2022/08/01 02:45:12;;;;;;;;;0.00;0.00;;;;;26.08;49.65;101219.69;2097059;28;47313;-57
2022/08/01 02:46:19;;;;;;;;;0.00;0.00;;;;;26.08;49.10;101230.56;2101217;28;47631;-57
2022/08/01 02:47:23;;;;;;;;;0.00;0.00;;;;;26.07;49.64;101221.53;2097808;28;47878;-57
2022/08/01 02:48:25;;;;;;;;;2.00;0.25;;;;;26.05;49.83;101228.97;2104878;28;47582;-59
2022/08/01 02:49:32;;;;;;;;;0.00;0.00;;;;;26.04;49.50;101223.63;2101838;28;47613;-57
2022/08/01 02:50:34;;;;;;;;;1.00;1.00;;;;;26.02;49.81;101222.88;2098003;28;48112;-57
2022/08/01 02:51:36;;;;;;;;;0.00;0.00;;;;;26.00;49.38;101223.00;2109780;27;47678;-57
2022/08/01 02:52:39;;;;;;;;;0.20;0.20;;;;;25.98;49.88;101221.41;2104952;27;47492;-57
2022/08/01 02:53:42;;;;;;;;;0.00;0.00;;;;;25.98;49.77;101224.13;2103396;28;47669;-57
2022/08/01 02:54:46;;;;;;;;;0.00;0.00;;;;;25.97;49.50;101225.09;2097350;28;47503;-55
2022/08/01 02:55:48;;;;;;;;;1.40;0.00;;;;;25.98;50.10;101219.53;2101006;28;47320;-57
2022/08/01 02:56:51;;;;;;;;;0.00;0.00;;;;;25.99;50.11;101223.13;2105236;28;46383;-58
2022/08/01 02:57:54;;;;;;;;;0.00;0.00;;;;;26.00;49.77;101219.41;2099460;28;47731;-57
2022/08/01 02:58:55;;;;;;;;;0.00;0.00;;;;;26.00;49.70;101217.56;2107306;27;47829;-58
2022/08/01 02:59:58;;;;;;;;;1.00;0.00;;;;;26.01;49.31;101223.88;2104735;27;47134;-57
2022/08/01 03:01:00;;;;;;;;;0.25;0.25;;;;;26.02;49.72;101225.59;2097505;28;47750;-57
2022/08/01 03:02:02;;;;;;;;;0.00;0.00;;;;;26.03;49.32;101227.31;2097364;28;47565;-57
2022/08/01 03:03:05;;;;;;;;;0.00;0.00;;;;;26.03;49.87;101227.31;2097389;28;47551;-55
2022/08/01 03:04:07;;;;;;;;;1.50;0.00;;;;;26.05;49.91;101225.38;2097171;28;47839;-57
2022/08/01 03:05:08;;;;;;;;;0.00;0.00;;;;;26.06;50.05;101225.25;2098623;28;47615;-58
2022/08/01 03:06:10;;;;;;;;;0.00;0.00;;;;;26.06;49.81;101216.22;2097448;28;47376;-57
2022/08/01 03:07:12;;;;;;;;;1.00;1.00;;;;;26.08;49.23;101214.25;2097118;28;47698;-56
2022/08/01 03:08:15;;;;;;;;;0.00;0.00;;;;;26.06;49.23;101219.81;2097574;28;47768;-58
2022/08/01 03:09:16;;;;;;;;;0.00;0.00;;;;;26.08;49.72;101223.28;2097228;28;47663;-56
2022/08/01 03:10:17;;;;;;;;;0.00;0.00;;;;;26.09;49.96;101218.69;2096604;28;47325;-58
2022/08/01 03:11:20;;;;;;;;;0.00;0.00;;;;;26.10;49.78;101217.72;2097326;28;47290;-58
2022/08/01 03:12:27;;;;;;;;;0.00;0.00;;;;;26.09;49.73;101214.13;2097186;28;47418;-58
2022/08/01 03:13:29;;;;;;;;;0.00;0.00;;;;;26.08;49.15;101214.25;2097830;28;47490;-56
2022/08/01 03:14:34;;;;;;;;;0.00;0.00;;;;;26.05;49.45;101223.53;2105820;27;48320;-56
2022/08/01 03:15:38;;;;;;;;;0.50;0.50;;;;;26.02;49.66;101215.59;2102826;27;47570;-58
2022/08/01 03:16:41;;;;;;;;;0.75;0.75;;;;;26.00;49.26;101219.41;2102086;27;48408;-57
2022/08/01 03:17:45;;;;;;;;;0.75;0.00;;;;;26.01;49.42;101219.28;2096846;28;47385;-54
2022/08/01 03:18:47;;;;;;;;;0.00;0.00;;;;;26.00;49.57;101217.56;2086729;28;47903;-57
2022/08/01 03:19:51;;;;;;;;;0.00;0.00;;;;;26.00;49.89;101216.69;2087809;28;47513;-57
2022/08/01 03:20:55;;;;;;;;;0.25;0.25;;;;;25.99;49.97;101221.28;2097190;28;47623;-54
2022/08/01 03:21:58;;;;;;;;;0.00;0.00;;;;;26.01;49.60;101218.44;2104382;28;48095;-57
2022/08/01 03:23:03;;;;;;;;;0.00;0.00;;;;;26.00;49.22;101219.41;2105813;27;47646;-56
2022/08/01 03:24:06;;;;;;;;;0.25;0.00;;;;;26.02;49.28;101221.03;2105558;27;47618;-57
2022/08/01 03:25:08;;;;;;;;;0.00;0.00;;;;;26.04;49.24;101218.19;2105813;27;47941;-57
2022/08/01 03:26:10;;;;;;;;;0.25;0.25;;;;;26.04;49.79;101223.63;2096569;28;47274;-57
2022/08/01 03:27:11;;;;;;;;;0.00;0.00;;;;;26.05;49.93;101223.53;2104699;27;47977;-58
2022/08/01 03:28:13;;;;;;;;;0.00;0.00;;;;;26.06;49.98;101227.13;2101021;28;47090;-58
2022/08/01 03:29:19;;;;;;;;;0.00;0.00;;;;;26.03;49.29;101225.47;2097376;27;47937;-58
2022/08/01 03:30:22;;;;;;;;;0.00;0.00;;;;;26.02;49.07;101226.47;2097270;28;47929;-57
2022/08/01 03:31:24;;;;;;;;;0.00;0.00;;;;;26.01;49.69;101223.88;2098474;28;47463;-56
2022/08/01 03:32:27;;;;;;;;;0.50;0.50;;;;;26.02;49.24;101234.63;2100703;28;47571;-59
2022/08/01 03:33:29;;;;;;;;;0.00;0.00;;;;;26.00;49.36;101224.84;2101769;28;47475;-56
2022/08/01 03:34:30;;;;;;;;;0.00;0.00;;;;;26.00;49.68;101225.72;2097789;28;47560;-58
2022/08/01 03:35:35;;;;;;;;;0.00;0.00;;;;;25.98;49.28;101227.69;2096245;28;47477;-56
2022/08/01 03:36:55;;;;;;;;;0.00;0.00;;;;;25.98;49.21;101235.84;2103642;28;48234;-55
2022/08/01 03:37:57;;;;;;;;;0.00;0.00;;;;;25.98;49.86;101235.84;2083112;28;48064;-55
2022/08/01 03:39:02;;;;;;;;;0.00;0.00;;;;;25.97;49.30;101225.97;2092148;28;48015;-56
2022/08/01 03:40:09;;;;;;;;;0.25;0.25;;;;;25.96;49.86;101224.25;2104696;28;47398;-55
2022/08/01 03:41:12;;;;;;;;;0.00;0.00;;;;;25.97;49.85;101225.09;2101322;28;47725;-55
2022/08/01 03:42:18;;;;;;;;;0.00;0.00;;;;;25.96;49.96;101223.38;2097200;28;48131;-56
2022/08/01 03:43:28;;;;;;;;;0.00;0.00;;;;;25.96;49.97;101228.81;2105489;27;47666;-57
2022/08/01 03:44:32;;;;;;;;;0.00;0.00;;;;;25.97;49.47;101222.38;2105420;27;47475;-56
2022/08/01 03:45:41;;;;;;;;;0.40;0.00;;;;;25.97;49.41;101230.53;2113052;27;47239;-53
2022/08/01 03:46:47;;;;;;;;;0.75;0.00;;;;;25.96;49.57;101228.81;2109083;27;47747;-56
2022/08/01 03:47:54;;;;;;;;;1.25;0.00;;;;;25.93;49.27;101229.91;2098843;27;47739;-56
2022/08/01 03:48:58;;;;;;;;;0.80;0.80;;;;;25.94;49.43;101228.94;2101786;27;47949;-57
2022/08/01 03:50:01;;;;;;;;;0.00;0.00;;;;;25.94;49.79;101225.34;2098532;28;47515;-54
2022/08/01 03:51:03;;;;;;;;;0.00;0.00;;;;;25.93;49.62;101232.66;2085271;28;47749;-56
2022/08/01 03:52:07;;;;;;;;;0.80;0.80;;;;;25.93;50.03;101234.50;2086940;28;47690;-61
2022/08/01 03:53:09;;;;;;;;;0.00;0.00;;;;;25.93;49.53;101221.78;2100841;28;47128;-59
2022/08/01 03:54:12;;;;;;;;;0.00;0.00;;;;;25.95;50.19;101227.09;2092021;28;47279;-59
2022/08/01 03:55:16;;;;;;;;;0.00;0.00;;;;;25.94;49.63;101234.38;2095635;28;46120;-58
2022/08/01 03:56:19;;;;;;;;;4.40;4.00;;;;;25.95;49.46;101233.38;2097062;28;47903;-59
2022/08/01 03:57:20;;;;;;;;;7.60;6.20;;;;;25.96;49.65;101228.81;2097131;28;47834;-58
2022/08/01 03:58:22;;;;;;;;;2.00;2.00;;;;;25.95;49.72;101230.66;2099845;28;48222;-57
2022/08/01 03:59:22;;;;;;;;;0.80;0.80;;;;;25.95;49.63;101232.53;2109587;27;48064;-58
2022/08/01 04:00:24;;;;;;;;;0.00;0.00;;;;;25.93;49.95;101235.38;2101475;27;47863;-58
2022/08/01 04:01:24;;;;;;;;;0.00;0.00;;;;;25.91;50.04;101228.28;2097987;28;47889;-58
2022/08/01 04:02:26;;;;;;;;;0.00;0.00;;;;;25.89;50.15;101222.09;2103945;28;47559;-58
2022/08/01 04:03:27;;;;;;;;;0.25;0.25;;;;;25.88;49.95;101229.41;2103572;28;47423;-58
2022/08/01 04:04:29;;;;;;;;;0.00;0.00;;;;;25.87;49.58;101224.09;2099688;27;47338;-60
2022/08/01 04:05:31;;;;;;;;;0.00;0.00;;;;;25.85;49.11;101231.50;2099684;27;47988;-58
2022/08/01 04:06:31;;;;;;;;;0.00;0.00;;;;;25.83;49.73;101228.91;2097391;28;47557;-57
2022/08/01 04:07:35;;;;;;;;;0.00;0.00;;;;;25.80;49.74;101227.28;2095625;28;46918;-59
2022/08/01 04:08:40;;;;;;;;;0.00;0.00;;;;;25.79;49.68;101225.56;2100381;28;48200;-59
2022/08/01 04:09:42;;;;;;;;;0.00;0.00;;;;;25.77;49.01;101230.22;2099761;27;48041;-59
2022/08/01 04:10:42;;;;;;;;;0.00;0.00;;;;;25.75;49.30;101224.03;2105294;27;47969;-59
2022/08/01 04:11:43;;;;;;;;;0.00;0.00;;;;;25.74;48.92;101222.31;2098368;27;47174;-59
2022/08/01 04:12:43;;;;;;;;;0.00;0.00;;;;;25.72;49.50;101226.13;2096751;28;47175;-60
2022/08/01 04:13:44;;;;;;;;;0.00;0.00;;;;;25.72;49.39;101223.41;2095925;28;47380;-59
2022/08/01 04:14:44;;;;;;;;;1.25;0.00;;;;;25.72;49.42;101215.25;2096601;28;48151;-59
2022/08/01 04:15:45;;;;;;;;;0.00;0.00;;;;;25.71;49.69;101222.56;2096654;28;45770;-58
2022/08/01 04:16:45;;;;;;;;;1.00;0.00;;;;;25.71;49.69;101224.41;2096722;28;47719;-57
2022/08/01 04:17:46;;;;;;;;;0.00;0.00;;;;;25.70;49.25;101218.09;2097026;28;47411;-58
2022/08/01 04:18:47;;;;;;;;;0.00;0.00;;;;;25.69;49.44;101220.94;2105516;27;47891;-58
2022/08/01 04:19:47;;;;;;;;;1.00;0.25;;;;;25.70;49.33;101217.25;2104834;27;47516;-59
2022/08/01 04:20:48;;;;;;;;;1.00;1.00;;;;;25.70;49.32;101212.66;2105097;28;47355;-60
2022/08/01 04:21:48;;;;;;;;;0.00;0.00;;;;;25.70;49.18;101211.81;2105125;28;47470;-60
2022/08/01 04:22:49;;;;;;;;;0.00;0.00;;;;;25.71;49.44;101216.25;2105306;27;47426;-57
2022/08/01 04:23:52;;;;;;;;;1.00;1.00;;;;;25.72;49.55;101223.41;2105375;27;47404;-59
2022/08/01 04:24:56;;;;;;;;;0.00;0.00;;;;;25.71;49.10;101219.84;2105041;27;47583;-59
2022/08/01 04:25:59;;;;;;;;;0.00;0.00;;;;;25.74;49.87;101224.16;2105086;27;47399;-59
2022/08/01 04:27:01;;;;;;;;;0.00;0.00;;;;;25.74;49.38;101216.88;2105112;27;47324;-56
2022/08/01 04:28:03;;;;;;;;;0.00;0.00;;;;;25.74;49.46;101213.28;2104907;27;47498;-59
2022/08/01 04:29:06;;;;;;;;;1.00;0.00;;;;;25.75;49.50;101206.88;2113028;27;47818;-59
2022/08/01 04:30:07;;;;;;;;;1.00;1.00;;;;;25.75;50.17;101213.16;2104391;28;47182;-58
2022/08/01 04:31:11;;;;;;;;;0.00;0.00;;;;;25.73;49.76;101209.72;2104245;28;47403;-59
2022/08/01 04:32:14;;;;;;;;;0.00;0.00;;;;;25.74;49.93;101207.84;2104731;28;47820;-57
2022/08/01 04:33:16;;;;;;;;;0.40;0.40;;;;;25.74;49.60;101205.13;2104311;28;47559;-59
2022/08/01 04:34:21;;;;;;;;;0.00;0.00;;;;;25.73;50.09;101197.97;2105087;27;47928;-59
2022/08/01 04:35:24;;;;;;;;;0.00;0.00;;;;;25.72;49.67;101198.97;2103940;27;47946;-59
2022/08/01 04:36:28;;;;;;;;;0.20;0.20;;;;;25.73;49.70;101203.41;2105145;27;47736;-57
2022/08/01 04:37:30;;;;;;;;;2.00;0.00;;;;;25.73;50.08;101203.41;2105353;27;47345;-59
2022/08/01 04:38:34;;;;;;;;;0.00;0.00;;;;;25.72;50.16;101201.69;2105139;27;47507;-59
2022/08/01 04:39:36;;;;;;;;;0.00;0.00;;;;;25.73;49.85;101204.28;2104880;27;47914;-59
2022/08/01 04:40:37;;;;;;;;;0.00;0.00;;;;;25.73;50.50;101198.84;2098044;27;47855;-58
2022/08/01 04:41:39;;;;;;;;;1.00;1.00;;;;;25.74;50.34;101205.13;2096416;28;47361;-58
2022/08/01 04:42:40;;;;;;;;;0.00;0.00;;;;;25.73;50.36;101204.28;2096744;28;47528;-58
2022/08/01 04:43:41;;;;;;;;;0.00;0.00;;;;;25.74;49.91;101203.28;2096758;28;47985;-58
2022/08/01 04:44:41;;;;;;;;;0.20;0.00;;;;;25.74;50.15;101203.28;2100684;28;48012;-57
2022/08/01 04:45:43;;;;;;;;;0.50;0.00;;;;;25.76;49.75;101204.03;2105037;27;47447;-58
2022/08/01 04:46:45;;;;;;;;;1.00;1.00;;;;;25.77;50.40;101202.16;2097710;27;47542;-59
2022/08/01 04:47:47;;;;;;;;;0.00;0.00;;;;;25.79;50.39;101205.63;2096087;28;47466;-58
2022/08/01 04:48:48;;;;;;;;;0.00;0.00;;;;;25.79;50.26;101203.81;2096720;28;47839;-58
2022/08/01 04:49:49;;;;;;;;;0.80;0.80;;;;;25.79;50.38;101205.63;2096496;28;47651;-58
2022/08/01 04:50:50;;;;;;;;;2.00;1.00;;;;;25.77;49.92;101203.03;2097570;28;47744;-59
2022/08/01 04:51:57;;;;;;;;;0.00;0.00;;;;;25.78;50.47;101209.34;2107226;27;47471;-57
2022/08/01 04:52:57;;;;;;;;;1.00;0.20;;;;;25.78;50.33;101204.75;2100043;27;47921;-59
2022/08/01 04:53:58;;;;;;;;;0.00;0.00;;;;;25.79;50.73;101205.63;2104370;27;47490;-59
2022/08/01 04:54:58;;;;;;;;;0.25;0.25;;;;;25.81;50.38;101210.00;2096498;28;47072;-60